Time;durP1;ratioP1;P1;durP2;ratioP2;P2;SDS_P1;SDS_P2;PMS_P1;PMS_P2;Temp;Humidity;BMP_temperature;BMP_pressure;BME280_temperature;BME280_humidity;BME280_pressure;Samples;Min_cycle;Max_cycle;Signal;HPM_P1;HPM_P2
2022/03/04 00:00:37;;;;;;;29.70;16.10;;;2.10;99.90;;;;;;5005293;28;20229;-79
2022/03/04 00:03:09;;;;;;;29.67;16.13;;;1.90;99.90;;;;;;4987275;28;20213;-78
2022/03/04 00:05:43;;;;;;;31.27;15.93;;;1.90;99.90;;;;;;4996290;28;20197;-78
2022/03/04 00:08:10;;;;;;;30.87;17.07;;;1.90;99.90;;;;;;4995469;28;20199;-79
2022/03/04 00:10:39;;;;;;;29.83;16.40;;;1.90;99.90;;;;;;5009419;28;20291;-78
2022/03/04 00:13:07;;;;;;;29.00;16.07;;;1.80;99.90;;;;;;5004827;28;20565;-80
2022/03/04 00:15:34;;;;;;;26.07;15.37;;;1.70;99.90;;;;;;5017281;28;20177;-78
2022/03/04 00:18:01;;;;;;;28.30;15.63;;;1.70;99.90;;;;;;5020255;28;20251;-79
2022/03/04 00:20:28;;;;;;;31.73;17.27;;;2.60;99.90;;;;;;4994366;28;20231;-77
2022/03/04 00:22:55;;;;;;;30.50;17.10;;;1.60;99.90;;;;;;5010175;28;20203;-78
2022/03/04 00:25:23;;;;;;;35.63;18.43;;;1.60;99.90;;;;;;5004421;28;20197;-78
2022/03/04 00:27:50;;;;;;;31.83;15.43;;;1.60;99.90;;;;;;5002381;28;20197;-78
2022/03/04 00:30:17;;;;;;;29.30;16.40;;;1.60;99.90;;;;;;4995577;28;20254;-79
2022/03/04 00:32:47;;;;;;;28.43;15.83;;;1.60;99.90;;;;;;5012037;28;20209;-80
2022/03/04 00:35:17;;;;;;;31.23;15.83;;;1.50;99.90;;;;;;5011431;28;20193;-80
2022/03/04 00:37:44;;;;;;;28.80;16.33;;;1.50;99.90;;;;;;4986886;28;20620;-80
2022/03/04 00:40:12;;;;;;;29.47;17.03;;;1.50;99.90;;;;;;5006759;28;20233;-80
2022/03/04 00:42:39;;;;;;;27.70;16.33;;;1.40;99.90;;;;;;5005614;28;20296;-77
2022/03/04 00:45:06;;;;;;;28.00;15.93;;;1.40;99.90;;;;;;4996739;28;20279;-78
2022/03/04 00:47:35;;;;;;;27.47;15.80;;;1.50;99.90;;;;;;5010881;28;20220;-78
2022/03/04 00:50:04;;;;;;;31.27;16.33;;;1.40;99.90;;;;;;5010878;28;20240;-79
2022/03/04 00:52:31;;;;;;;28.07;17.30;;;1.30;99.90;;;;;;5019868;28;20556;-79
2022/03/04 00:54:58;;;;;;;33.70;16.70;;;1.30;99.90;;;;;;5011374;28;20228;-77
2022/03/04 00:57:27;;;;;;;28.73;16.13;;;1.40;99.90;;;;;;5022601;28;20201;-79
2022/03/04 00:59:54;;;;;;;27.10;15.63;;;1.30;99.90;;;;;;5002830;28;20212;-80
2022/03/04 01:02:21;;;;;;;32.30;16.97;;;1.30;99.90;;;;;;5017973;28;20196;-78
2022/03/04 01:04:48;;;;;;;30.90;16.87;;;1.30;99.90;;;;;;5010754;28;20193;-78
2022/03/04 01:07:16;;;;;;;30.13;17.37;;;1.30;99.90;;;;;;4988416;28;20309;-78
2022/03/04 01:09:45;;;;;;;28.17;16.40;;;1.30;99.90;;;;;;5019413;28;22606;-77
2022/03/04 01:12:13;;;;;;;27.97;16.60;;;1.20;99.90;;;;;;4992503;28;20209;-80
2022/03/04 01:14:40;;;;;;;26.53;16.50;;;1.20;99.90;;;;;;5003635;28;20213;-78
2022/03/04 01:17:06;;;;;;;28.87;17.20;;;1.10;99.90;;;;;;5005307;28;20855;-79
2022/03/04 01:19:33;;;;;;;31.50;16.17;;;1.00;99.90;;;;;;5010042;28;20688;-79
2022/03/04 01:22:00;;;;;;;32.90;17.07;;;1.00;99.90;;;;;;5004788;28;20255;-78
2022/03/04 01:24:30;;;;;;;28.73;17.27;;;0.90;99.90;;;;;;4993504;28;20255;-79
2022/03/04 01:27:01;;;;;;;27.67;15.90;;;0.90;99.90;;;;;;5009590;28;20205;-78
2022/03/04 01:29:30;;;;;;;26.40;16.10;;;0.80;1.00;;;;;;4986443;28;20205;-78
2022/03/04 01:31:59;;;;;;;27.73;15.83;;;0.70;1.00;;;;;;5004178;28;20212;-79
2022/03/04 01:34:26;;;;;;;34.10;19.30;;;0.60;1.00;;;;;;4996586;28;20197;-79
2022/03/04 01:36:53;;;;;;;30.53;18.33;;;0.50;1.00;;;;;;5004037;28;20220;-78
2022/03/04 01:39:20;;;;;;;29.77;17.67;;;0.50;1.00;;;;;;5018445;28;20217;-79
2022/03/04 01:41:47;;;;;;;38.60;20.17;;;0.40;1.00;;;;;;5003440;28;20675;-78
2022/03/04 01:44:14;;;;;;;35.00;19.97;;;0.30;1.00;;;;;;4992620;28;20198;-78
2022/03/04 01:46:43;;;;;;;33.00;19.97;;;0.20;1.00;;;;;;5001412;28;20212;-79
2022/03/04 01:49:10;;;;;;;36.53;19.67;;;0.20;1.00;;;;;;5019945;28;20226;-78
2022/03/04 01:51:37;;;;;;;30.00;18.23;;;0.10;1.00;;;;;;5001774;28;20309;-76
2022/03/04 01:54:04;;;;;;;31.30;18.17;;;0.00;1.00;;;;;;4987585;28;20854;-77
2022/03/04 01:56:31;;;;;;;34.83;19.97;;;0.00;1.00;;;;;;4994245;28;20205;-76
2022/03/04 01:58:58;;;;;;;31.37;18.50;;;0.10;1.00;;;;;;5002520;28;20292;-76
2022/03/04 02:01:26;;;;;;;26.87;17.20;;;0.10;1.00;;;;;;4994911;28;20204;-76
2022/03/04 02:03:53;;;;;;;31.90;17.47;;;-0.10;1.00;;;;;;5000442;28;20189;-77
2022/03/04 02:06:20;;;;;;;35.40;18.60;;;-0.10;1.00;;;;;;5001789;28;20201;-77
2022/03/04 02:08:47;;;;;;;34.40;18.13;;;-0.20;1.00;;;;;;5019739;28;20598;-77
2022/03/04 02:11:15;;;;;;;30.87;17.83;;;-0.30;1.00;;;;;;5017684;28;20232;-76
2022/03/04 02:13:43;;;;;;;31.17;18.00;;;-0.30;1.00;;;;;;5001134;28;20683;-77
2022/03/04 02:16:26;;;;;;;28.50;17.50;;;-0.20;1.00;;;;;;5003638;28;20197;-78
2022/03/04 02:18:54;;;;;;;33.33;18.13;;;-0.20;1.00;;;;;;5001400;28;20192;-77
2022/03/04 02:21:23;;;;;;;32.40;17.03;;;-0.30;1.00;;;;;;5000203;28;20225;-77
2022/03/04 02:23:50;;;;;;;29.67;17.03;;;-0.30;1.00;;;;;;5001680;28;20704;-77
2022/03/04 02:26:17;;;;;;;34.00;17.87;;;-0.30;1.00;;;;;;4993938;28;20255;-77
2022/03/04 02:28:46;;;;;;;38.27;18.63;;;-0.20;1.00;;;;;;5007573;28;20946;-76
2022/03/04 02:31:19;;;;;;;34.13;17.50;;;-0.30;1.00;;;;;;4992590;28;20303;-77
2022/03/04 02:33:48;;;;;;;32.33;18.43;;;-0.40;1.00;;;;;;4991984;28;20197;-77
2022/03/04 02:36:15;;;;;;;32.50;19.07;;;-0.40;1.00;;;;;;5009597;28;20208;-76
2022/03/04 02:38:42;;;;;;;32.87;17.90;;;-0.50;1.00;;;;;;4984238;28;20276;-77
2022/03/04 02:41:13;;;;;;;34.10;18.23;;;-0.60;1.00;;;;;;5002134;28;20217;-77
2022/03/04 02:43:43;;;;;;;30.03;17.23;;;-0.60;1.00;;;;;;5020592;28;20206;-76
2022/03/04 02:46:15;;;;;;;31.10;17.70;;;-0.70;1.00;;;;;;4988649;28;20209;-76
2022/03/04 02:48:42;;;;;;;33.70;16.90;;;-0.70;1.00;;;;;;5016578;28;20305;-77
2022/03/04 02:51:09;;;;;;;25.10;16.13;;;-0.50;1.00;;;;;;5002740;28;20201;-79
2022/03/04 02:53:36;;;;;;;32.80;18.03;;;-0.50;1.00;;;;;;5005823;28;20212;-76
2022/03/04 02:56:04;;;;;;;31.57;17.33;;;-0.60;1.00;;;;;;5002622;28;20236;-76
2022/03/04 02:58:31;;;;;;;35.67;17.27;;;-0.60;1.00;;;;;;5017937;28;20221;-77
2022/03/04 03:01:01;;;;;;;27.67;16.47;;;-0.70;1.00;;;;;;5006032;28;20288;-76
2022/03/04 03:03:28;;;;;;;37.03;18.40;;;-0.70;1.00;;;;;;5005907;28;20204;-77
2022/03/04 03:05:59;;;;;;;28.47;16.30;;;-0.80;1.00;;;;;;4999582;28;20194;-77
2022/03/04 03:08:29;;;;;;;29.37;17.43;;;-0.80;1.00;;;;;;4991334;28;20295;-78
2022/03/04 03:10:58;;;;;;;30.77;16.93;;;-0.90;1.00;;;;;;5007938;28;20347;-77
2022/03/04 03:13:26;;;;;;;38.67;20.03;;;-0.90;1.00;;;;;;5000245;28;20707;-77
2022/03/04 03:15:53;;;;;;;32.60;18.97;;;-0.80;1.00;;;;;;5004568;28;20189;-76
2022/03/04 03:18:22;;;;;;;36.73;18.57;;;-0.80;1.00;;;;;;4999225;28;20201;-78
2022/03/04 03:20:49;;;;;;;33.03;17.53;;;-0.80;1.00;;;;;;5000618;28;20213;-77
2022/03/04 03:23:16;;;;;;;31.80;18.33;;;-0.90;1.00;;;;;;5002019;28;20194;-77
2022/03/04 03:25:43;;;;;;;32.77;19.27;;;-0.90;1.00;;;;;;4993528;28;21073;-77
2022/03/04 03:28:10;;;;;;;34.60;18.60;;;-1.00;1.00;;;;;;5006812;28;20596;-79
2022/03/04 03:30:37;;;;;;;35.30;19.70;;;-1.00;1.00;;;;;;5000121;28;20239;-78
2022/03/04 03:33:04;;;;;;;36.17;19.53;;;-1.00;1.00;;;;;;5002290;28;20197;-77
2022/03/04 03:35:31;;;;;;;33.97;17.43;;;-1.00;1.00;;;;;;4999750;28;20653;-76
2022/03/04 03:37:58;;;;;;;30.90;16.77;;;-0.90;1.00;;;;;;4992354;28;20208;-76
2022/03/04 03:40:34;;;;;;;34.93;17.37;;;-0.90;1.00;;;;;;5002082;28;20216;-76
2022/03/04 03:43:20;;;;;;;31.47;17.53;;;-0.90;1.00;;;;;;5001402;28;20521;-76
2022/03/04 03:45:47;;;;;;;30.53;16.80;;;-1.00;1.00;;;;;;4989728;28;20205;-76
2022/03/04 03:48:14;;;;;;;28.03;16.17;;;-1.00;1.00;;;;;;4991470;28;20296;-76
2022/03/04 03:50:41;;;;;;;31.80;18.20;;;-1.00;1.00;;;;;;5006752;28;20217;-76
2022/03/04 03:53:09;;;;;;;31.57;16.67;;;-0.90;99.90;;;;;;5008445;28;20532;-76
2022/03/04 03:55:38;;;;;;;34.33;18.63;;;-1.00;19.00;;;;;;5001250;28;20198;-76
2022/03/04 03:58:05;;;;;;;31.17;17.23;;;-1.10;18.30;;;;;;4988494;28;20604;-76
2022/03/04 04:00:36;;;;;;;32.20;18.80;;;-1.20;14.90;;;;;;5001382;28;20280;-76
2022/03/04 04:03:03;;;;;;;33.03;18.53;;;-1.30;99.90;;;;;;4990958;28;20197;-77
2022/03/04 04:05:31;;;;;;;33.53;18.13;;;-1.20;99.90;;;;;;4997767;28;20197;-76
2022/03/04 04:08:00;;;;;;;32.33;17.90;;;-1.20;58.00;;;;;;4997664;28;20212;-76
2022/03/04 04:10:30;;;;;;;38.43;18.80;;;-1.30;99.90;;;;;;4995561;28;20708;-76
2022/03/04 04:12:59;;;;;;;33.20;17.93;;;-1.10;99.90;;;;;;5009819;28;20654;-76
2022/03/04 04:15:28;;;;;;;29.10;16.50;;;-1.20;99.90;;;;;;5001989;28;20197;-76
2022/03/04 04:17:57;;;;;;;29.47;18.53;;;-1.10;99.90;;;;;;4992389;28;20204;-76
2022/03/04 04:20:24;;;;;;;33.70;19.27;;;-1.20;99.90;;;;;;5017163;28;20216;-76
2022/03/04 04:22:52;;;;;;;36.27;20.13;;;-1.20;99.90;;;;;;5001040;28;20193;-77
2022/03/04 04:25:19;;;;;;;32.80;18.73;;;-1.20;99.90;;;;;;5021614;28;20205;-76
2022/03/04 04:27:49;;;;;;;31.63;18.33;;;-1.20;99.90;;;;;;4987803;28;20224;-76
2022/03/04 04:30:16;;;;;;;32.03;19.03;;;-1.30;99.90;;;;;;5003892;28;20298;-76
2022/03/04 04:32:43;;;;;;;33.77;18.73;;;-1.40;99.90;;;;;;5005149;28;20557;-76
2022/03/04 04:35:10;;;;;;;32.97;18.57;;;-1.40;99.90;;;;;;5004546;28;20208;-76
2022/03/04 04:37:38;;;;;;;33.30;17.73;;;-1.50;99.90;;;;;;4995314;28;20204;-77
2022/03/04 04:40:06;;;;;;;38.33;19.90;;;-1.50;99.90;;;;;;5005112;28;20298;-76
2022/03/04 04:42:33;;;;;;;36.00;19.67;;;-1.40;99.90;;;;;;5002581;28;20197;-76
2022/03/04 04:45:01;;;;;;;39.90;19.97;;;-1.40;99.90;;;;;;5002098;28;20204;-76
2022/03/04 04:47:28;;;;;;;36.23;19.87;;;-1.30;99.90;;;;;;5011392;28;20208;-76
2022/03/04 04:49:57;;;;;;;32.43;19.97;;;-1.20;99.90;;;;;;5011465;28;20220;-77
2022/03/04 04:52:24;;;;;;;36.20;21.03;;;-1.30;99.90;;;;;;5003313;28;20198;-76
2022/03/04 04:54:52;;;;;;;35.67;19.47;;;-1.20;1.00;;;;;;5007786;28;20205;-76
2022/03/04 04:57:24;;;;;;;34.23;20.07;;;-1.20;1.00;;;;;;5003093;28;20232;-76
2022/03/04 04:59:54;;;;;;;36.10;18.90;;;-1.20;99.90;;;;;;5020518;28;20288;-76
2022/03/04 05:02:22;;;;;;;42.77;21.17;;;-1.20;1.00;;;;;;5005295;28;20192;-76
2022/03/04 05:04:49;;;;;;;41.27;21.90;;;-0.90;1.00;;;;;;5020944;28;20216;-76
2022/03/04 05:07:16;;;;;;;37.80;20.93;;;-1.10;1.00;;;;;;5006114;28;20205;-76
2022/03/04 05:09:43;;;;;;;39.73;21.63;;;-1.20;99.90;;;;;;5003684;28;20224;-76
2022/03/04 05:12:10;;;;;;;36.73;20.97;;;-1.20;1.00;;;;;;5002065;28;20216;-76
2022/03/04 05:14:37;;;;;;;38.83;19.67;;;-1.20;1.00;;;;;;4992834;28;20208;-76
2022/03/04 05:17:05;;;;;;;41.30;23.83;;;-1.20;1.00;;;;;;5019556;28;20286;-75
2022/03/04 05:19:34;;;;;;;41.63;21.50;;;-1.30;1.00;;;;;;5004800;28;20201;-78
2022/03/04 05:22:01;;;;;;;44.60;22.60;;;-1.30;1.00;;;;;;5019239;28;20248;-78
2022/03/04 05:24:29;;;;;;;39.67;22.40;;;-1.30;1.00;;;;;;4993945;28;20200;-78
2022/03/04 05:26:56;;;;;;;48.87;25.50;;;-1.30;1.00;;;;;;5009429;28;21264;-77
2022/03/04 05:29:23;;;;;;;44.90;25.90;;;-1.20;1.00;;;;;;4994812;28;20675;-76
2022/03/04 05:31:50;;;;;;;51.97;27.33;;;-1.20;1.00;;;;;;4985706;28;20201;-75
2022/03/04 05:34:17;;;;;;;46.70;25.37;;;-1.30;1.00;;;;;;5020078;28;20219;-75
2022/03/04 05:36:47;;;;;;;53.47;25.53;;;-1.30;1.00;;;;;;4994174;28;20695;-76
2022/03/04 05:39:14;;;;;;;45.13;23.53;;;-1.40;1.00;;;;;;5004638;28;20679;-76
2022/03/04 05:41:41;;;;;;;42.73;24.50;;;-1.40;1.00;;;;;;5009742;28;20291;-76
2022/03/04 05:44:08;;;;;;;41.83;22.67;;;-1.40;1.00;;;;;;5002749;28;20208;-76
2022/03/04 05:46:35;;;;;;;43.77;23.73;;;-1.40;1.00;;;;;;5001768;28;20207;-76
2022/03/04 05:49:03;;;;;;;39.83;22.63;;;-1.50;1.00;;;;;;4994533;28;20264;-76
2022/03/04 05:51:34;;;;;;;41.77;22.77;;;-1.50;1.00;;;;;;5010475;28;20193;-76
2022/03/04 05:54:02;;;;;;;40.50;22.10;;;-1.40;1.00;;;;;;5002368;28;20838;-76
2022/03/04 05:56:29;;;;;;;41.60;22.87;;;-1.30;1.00;;;;;;4993551;28;20255;-76
2022/03/04 05:58:56;;;;;;;44.43;23.30;;;-1.30;1.00;;;;;;5008559;28;20225;-76
2022/03/04 06:01:23;;;;;;;48.23;24.07;;;-1.30;1.00;;;;;;5004473;28;20215;-78
2022/03/04 06:03:54;;;;;;;43.93;22.87;;;-1.30;1.00;;;;;;5002108;28;20207;-78
2022/03/04 06:06:25;;;;;;;47.33;23.70;;;-1.20;1.00;;;;;;5004726;28;20196;-77
2022/03/04 06:08:52;;;;;;;45.07;25.27;;;-1.30;1.00;;;;;;4999535;28;20204;-78
2022/03/04 06:11:20;;;;;;;42.17;23.60;;;-1.40;1.00;;;;;;5009059;28;20232;-78
2022/03/04 06:13:50;;;;;;;43.67;23.30;;;-1.40;1.00;;;;;;5004529;28;20190;-77
2022/03/04 06:16:17;;;;;;;42.37;22.73;;;-1.40;1.00;;;;;;4992187;28;20268;-78
2022/03/04 06:18:47;;;;;;;38.73;22.70;;;-1.30;1.00;;;;;;5000067;28;20217;-76
2022/03/04 06:21:14;;;;;;;43.30;23.57;;;-1.30;1.00;;;;;;4988930;28;20220;-76
2022/03/04 06:23:44;;;;;;;45.87;23.43;;;-1.40;1.00;;;;;;5016872;28;20232;-76
2022/03/04 06:26:11;;;;;;;49.27;25.23;;;-0.70;1.00;;;;;;5002329;28;20189;-76
2022/03/04 06:28:39;;;;;;;42.30;23.87;;;0.30;99.90;;;;;;5008623;28;20236;-76
2022/03/04 06:31:07;;;;;;;44.57;23.57;;;1.10;1.00;;;;;;5007274;28;20302;-76
2022/03/04 06:33:35;;;;;;;35.40;22.20;;;1.90;99.90;;;;;;5001370;28;20239;-76
2022/03/04 06:36:14;;;;;;;34.97;21.40;;;3.00;1.00;;;;;;5009366;28;20278;-76
2022/03/04 06:38:45;;;;;;;33.70;20.33;;;4.00;1.00;;;;;;5019888;28;20664;-76
2022/03/04 06:41:14;;;;;;;33.57;18.70;;;5.10;99.90;;;;;;5005566;28;20308;-76
2022/03/04 06:43:42;;;;;;;33.67;20.33;;;5.10;99.90;;;;;;5004073;28;20687;-77
2022/03/04 06:46:12;;;;;;;36.93;22.60;;;5.50;1.00;;;;;;5003825;28;20648;-77
2022/03/04 06:48:39;;;;;;;27.40;18.60;;;6.10;27.90;;;;;;4987680;28;20317;-79
2022/03/04 06:51:06;;;;;;;30.23;18.37;;;6.80;1.00;;;;;;5002264;28;20209;-77
2022/03/04 06:53:33;;;;;;;31.57;19.13;;;6.30;1.00;;;;;;5017620;28;20219;-77
2022/03/04 06:56:00;;;;;;;30.20;19.33;;;6.60;1.00;;;;;;5000165;28;20212;-78
2022/03/04 06:58:27;;;;;;;30.53;18.93;;;6.70;1.00;;;;;;4991645;28;20219;-78
2022/03/04 07:00:55;;;;;;;28.67;18.30;;;7.20;1.00;;;;;;5000541;28;20213;-78
2022/03/04 07:03:23;;;;;;;29.53;18.10;;;7.20;1.00;;;;;;5001808;28;20201;-79
2022/03/04 07:05:53;;;;;;;30.97;19.50;;;6.90;1.00;;;;;;4992767;28;20204;-76
2022/03/04 07:08:23;;;;;;;28.73;18.40;;;7.40;1.00;;;;;;5002965;28;20268;-76
2022/03/04 07:10:52;;;;;;;31.50;20.10;;;7.60;1.00;;;;;;4999947;28;20253;-78
2022/03/04 07:13:21;;;;;;;35.07;20.90;;;7.40;1.00;;;;;;5003230;28;20201;-78
2022/03/04 07:15:51;;;;;;;29.43;19.63;;;6.90;1.00;;;;;;5002182;28;20193;-76
2022/03/04 07:18:18;;;;;;;29.70;19.67;;;7.20;1.00;;;;;;5009187;28;20208;-79
2022/03/04 07:20:51;;;;;;;31.13;20.27;;;8.10;1.00;;;;;;5019182;28;20223;-79
2022/03/04 07:23:20;;;;;;;27.40;18.60;;;7.60;1.00;;;;;;5008855;28;20201;-80
2022/03/04 07:25:48;;;;;;;28.23;18.37;;;6.50;1.00;;;;;;5004152;28;20210;-78
2022/03/04 07:28:16;;;;;;;32.90;19.70;;;5.70;1.00;;;;;;5005339;28;20284;-80
2022/03/04 07:30:46;;;;;;;29.80;19.60;;;4.30;99.90;;;;;;4986350;28;20201;-78
2022/03/04 07:33:13;;;;;;;31.70;19.07;;;3.50;1.00;;;;;;5002799;28;20204;-80
2022/03/04 07:35:45;;;;;;;30.17;19.20;;;3.20;1.00;;;;;;4993683;28;20193;-78
2022/03/04 07:38:13;;;;;;;31.03;20.00;;;3.10;1.00;;;;;;4985985;28;20212;-83
2022/03/04 07:40:44;;;;;;;63.33;23.23;;;3.10;1.00;;;;;;5003080;28;20610;-78
2022/03/04 07:43:11;;;;;;;35.27;21.03;;;3.10;1.00;;;;;;4993926;28;20914;-79
2022/03/04 07:45:40;;;;;;;28.47;18.93;;;3.00;1.00;;;;;;5008034;28;20289;-78
2022/03/04 07:48:09;;;;;;;33.30;20.73;;;2.60;1.00;;;;;;5004397;28;20700;-79
2022/03/04 07:50:36;;;;;;;33.10;19.73;;;2.50;1.00;;;;;;5023139;28;20215;-78
2022/03/04 07:53:05;;;;;;;32.93;19.17;;;2.60;1.00;;;;;;5008801;28;20194;-79
2022/03/04 07:55:35;;;;;;;32.73;19.00;;;2.50;1.00;;;;;;5005983;28;20210;-80
2022/03/04 07:58:02;;;;;;;33.67;19.97;;;2.60;1.00;;;;;;5004307;28;20212;-79
2022/03/04 08:00:29;;;;;;;31.90;18.97;;;2.70;1.00;;;;;;5003994;28;20292;-79
2022/03/04 08:02:59;;;;;;;36.60;20.10;;;2.70;1.00;;;;;;4991854;28;20309;-80
2022/03/04 08:05:27;;;;;;;38.97;20.83;;;2.60;1.00;;;;;;4995189;28;20185;-79
2022/03/04 08:07:53;;;;;;;32.90;19.23;;;2.60;1.00;;;;;;5024533;28;20297;-78
2022/03/04 08:10:23;;;;;;;31.03;18.93;;;2.70;1.00;;;;;;5003789;28;20268;-79
2022/03/04 08:12:50;;;;;;;31.63;20.07;;;2.60;1.00;;;;;;5005430;28;20872;-78
2022/03/04 08:15:18;;;;;;;30.80;18.57;;;2.70;1.00;;;;;;4985087;28;20336;-78
2022/03/04 08:17:45;;;;;;;33.10;19.67;;;2.80;1.00;;;;;;4996331;28;20672;-78
2022/03/04 08:20:12;;;;;;;33.53;19.97;;;2.60;1.00;;;;;;5008884;28;20219;-80
2022/03/04 08:22:39;;;;;;;32.87;19.57;;;2.60;1.00;;;;;;4995782;28;20283;-78
2022/03/04 08:25:07;;;;;;;34.30;20.33;;;2.40;1.00;;;;;;5007001;28;20204;-78
2022/03/04 08:27:44;;;;;;;32.27;19.00;;;2.50;1.00;;;;;;5008467;28;20225;-78
2022/03/04 08:30:14;;;;;;;34.03;19.53;;;2.40;1.00;;;;;;5008749;28;20197;-78
2022/03/04 08:32:41;;;;;;;33.87;20.70;;;2.50;1.00;;;;;;5010874;28;20220;-78
2022/03/04 08:35:09;;;;;;;33.80;20.03;;;2.60;1.00;;;;;;5006089;28;20822;-78
2022/03/04 08:37:38;;;;;;;31.47;20.67;;;2.60;1.00;;;;;;5011109;28;20235;-80
2022/03/04 08:40:10;;;;;;;36.30;20.80;;;2.70;1.00;;;;;;5013043;28;20215;-79
2022/03/04 08:42:40;;;;;;;32.80;20.83;;;2.90;1.00;;;;;;5006861;28;20279;-81
2022/03/04 08:45:09;;;;;;;32.97;20.83;;;3.50;1.00;;;;;;5007942;28;20205;-79
2022/03/04 08:47:45;;;;;;;32.93;19.50;;;3.00;1.00;;;;;;5006138;28;20209;-78
2022/03/04 08:50:14;;;;;;;32.23;20.30;;;3.00;1.00;;;;;;4978174;28;20673;-78
2022/03/04 08:52:41;;;;;;;34.70;20.57;;;3.10;1.00;;;;;;4994777;28;20214;-79
2022/03/04 08:55:14;;;;;;;34.23;19.50;;;3.20;1.00;;;;;;5017733;28;20673;-79
2022/03/04 08:57:45;;;;;;;35.13;20.00;;;3.20;1.00;;;;;;5003422;28;20667;-78
2022/03/04 09:00:16;;;;;;;34.07;20.57;;;3.30;1.00;;;;;;5007175;28;20229;-78
2022/03/04 09:02:44;;;;;;;30.73;18.87;;;3.50;1.00;;;;;;5003099;28;20300;-79
2022/03/04 09:05:14;;;;;;;33.17;19.07;;;3.40;1.00;;;;;;4996632;28;20205;-79
2022/03/04 09:07:43;;;;;;;28.77;18.23;;;3.60;1.00;;;;;;5021427;28;20244;-79
2022/03/04 09:10:11;;;;;;;31.63;19.97;;;3.80;1.00;;;;;;5004565;28;20225;-80
2022/03/04 09:12:38;;;;;;;29.40;17.67;;;8.80;1.00;;;;;;4989004;28;20560;-76
2022/03/04 09:15:11;;;;;;;29.40;17.60;;;13.50;1.00;;;;;;5002342;28;20206;-82
2022/03/04 09:17:40;;;;;;;26.33;18.40;;;14.80;1.00;;;;;;5012180;28;20265;-82
2022/03/04 09:20:08;;;;;;;26.53;17.13;;;15.40;1.00;;;;;;5005546;28;20595;-85
2022/03/04 09:22:35;;;;;;;27.43;18.37;;;15.60;1.00;;;;;;5020497;28;20232;-86
2022/03/04 09:25:05;;;;;;;27.37;18.33;;;15.50;1.00;;;;;;4998572;28;20201;-84
2022/03/04 09:27:32;;;;;;;27.57;18.60;;;14.60;1.00;;;;;;5007500;28;20260;-84
2022/03/04 09:30:02;;;;;;;26.13;18.47;;;15.80;1.00;;;;;;4991066;28;20653;-80
2022/03/04 09:32:29;;;;;;;26.67;18.57;;;16.20;1.00;;;;;;4992477;28;20954;-80
2022/03/04 09:34:59;;;;;;;23.57;17.77;;;16.30;1.00;;;;;;4998777;28;20240;-80
2022/03/04 09:37:26;;;;;;;25.43;18.33;;;17.10;1.00;;;;;;4991529;28;20216;-80
2022/03/04 09:39:53;;;;;;;21.63;16.63;;;16.20;1.00;;;;;;4991545;28;20224;-85
2022/03/04 09:42:21;;;;;;;27.40;19.80;;;16.10;1.00;;;;;;5007328;28;20225;-81
2022/03/04 09:44:50;;;;;;;25.00;17.60;;;17.40;1.00;;;;;;4995609;28;20197;-80
2022/03/04 09:47:22;;;;;;;23.77;17.48;;;17.60;1.00;;;;;;5022139;28;20204;-79
2022/03/04 09:49:54;;;;;;;25.23;16.97;;;17.10;1.00;;;;;;5009846;28;20221;-79
2022/03/04 09:52:25;;;;;;;31.88;18.40;;;16.70;1.00;;;;;;4993953;28;20232;-79
2022/03/04 09:54:53;;;;;;;23.33;17.50;;;16.70;1.00;;;;;;4995254;28;20674;-80
2022/03/04 09:57:21;;;;;;;28.70;18.53;;;16.40;1.00;;;;;;5003442;28;20293;-79
2022/03/04 09:59:48;;;;;;;26.83;17.48;;;17.50;1.00;;;;;;5004450;28;20220;-80
2022/03/04 10:02:16;;;;;;;24.80;17.50;;;19.20;1.00;;;;;;5007977;28;20221;-83
2022/03/04 10:04:45;;;;;;;25.52;17.75;;;19.00;1.00;;;;;;5019623;28;20296;-81
2022/03/04 10:07:16;;;;;;;23.73;17.50;;;18.40;1.00;;;;;;4987722;28;20292;-81
2022/03/04 10:09:46;;;;;;;26.08;16.58;;;17.90;1.00;;;;;;5005393;28;20177;-82
2022/03/04 10:12:18;;;;;;;22.58;16.73;;;18.50;1.00;;;;;;5005664;28;20962;-81
2022/03/04 10:15:06;;;;;;;22.23;16.55;;;18.50;1.00;;;;;;5003039;28;20197;-81
2022/03/04 10:17:40;;;;;;;19.73;15.77;;;18.60;1.00;;;;;;5002990;28;20899;-80
2022/03/04 10:20:12;;;;;;;22.02;15.90;;;20.50;1.00;;;;;;5000875;28;20206;-81
2022/03/04 10:22:46;;;;;;;22.50;16.80;;;21.10;1.00;;;;;;5001435;28;21137;-80
2022/03/04 10:25:23;;;;;;;21.92;16.92;;;21.60;1.00;;;;;;5005851;28;20657;-82
2022/03/04 10:28:07;;;;;;;21.33;17.25;;;20.50;1.00;;;;;;5005753;28;20200;-83
2022/03/04 10:30:37;;;;;;;23.20;17.58;;;20.30;1.00;;;;;;5000491;28;20199;-79
2022/03/04 10:33:09;;;;;;;21.65;17.02;;;20.50;1.00;;;;;;5018074;28;20204;-79
2022/03/04 10:35:38;;;;;;;23.25;16.88;;;19.50;1.00;;;;;;5007377;28;20205;-81
2022/03/04 10:38:16;;;;;;;27.90;17.30;;;19.90;1.00;;;;;;5008757;28;20266;-82
2022/03/04 10:40:49;;;;;;;20.48;15.85;;;21.40;1.00;;;;;;5003857;28;20265;-82
2022/03/04 10:43:23;;;;;;;20.58;16.23;;;23.00;1.00;;;;;;5007978;28;20213;-81
2022/03/04 10:46:02;;;;;;;20.35;16.13;;;22.70;1.00;;;;;;5002097;28;20205;-81
2022/03/04 10:48:32;;;;;;;22.73;16.95;;;22.10;1.00;;;;;;5001569;28;20618;-82
2022/03/04 10:51:06;;;;;;;19.13;15.23;;;22.00;1.00;;;;;;5006524;28;20895;-82
2022/03/04 10:53:36;;;;;;;20.92;16.02;;;20.70;1.00;;;;;;4987270;28;20205;-82
2022/03/04 10:56:07;;;;;;;20.08;15.35;;;22.40;1.00;;;;;;5004501;28;20260;-81
2022/03/04 10:58:40;;;;;;;19.30;15.18;;;22.00;1.00;;;;;;4992860;28;20198;-81
2022/03/04 11:01:18;;;;;;;20.48;15.18;;;22.10;1.00;;;;;;5003197;28;20269;-79
2022/03/04 11:03:45;;;;;;;23.17;15.88;;;22.20;1.00;;;;;;5004125;28;20205;-79
2022/03/04 11:06:16;;;;;;;18.77;15.43;;;21.70;1.00;;;;;;5018553;28;20205;-80
2022/03/04 11:08:48;;;;;;;20.83;15.65;;;21.70;1.00;;;;;;5008274;28;20200;-78
2022/03/04 11:11:17;;;;;;;19.73;15.65;;;22.00;1.00;;;;;;4999902;28;20228;-77
2022/03/04 11:13:45;;;;;;;19.77;15.00;;;21.30;1.00;;;;;;5001193;28;20224;-78
2022/03/04 11:16:15;;;;;;;19.77;15.38;;;20.60;1.00;;;;;;5002689;28;20264;-78
2022/03/04 11:18:43;;;;;;;18.80;14.65;;;18.60;1.00;;;;;;5002433;28;20228;-81
2022/03/04 11:21:11;;;;;;;20.33;15.27;;;17.90;1.00;;;;;;5012169;28;20205;-80
2022/03/04 11:23:45;;;;;;;19.17;13.80;;;17.40;1.00;;;;;;5002801;28;20215;-79
2022/03/04 11:26:21;;;;;;;17.60;13.85;;;17.80;1.00;;;;;;4985567;28;20204;-78
2022/03/04 11:28:51;;;;;;;15.50;12.45;;;18.30;1.00;;;;;;4987490;28;20247;-79
2022/03/04 11:31:20;;;;;;;18.05;13.75;;;18.50;1.00;;;;;;4993474;28;20216;-80
2022/03/04 11:33:58;;;;;;;20.35;13.93;;;17.60;1.00;;;;;;5005439;28;20194;-80
2022/03/04 11:36:30;;;;;;;17.58;13.50;;;16.70;1.00;;;;;;5007454;28;20280;-79
2022/03/04 11:39:06;;;;;;;21.00;13.63;;;16.10;1.00;;;;;;5004970;28;20223;-79
2022/03/04 11:41:38;;;;;;;22.05;14.93;;;16.30;1.00;;;;;;4998771;28;20724;-80
2022/03/04 11:44:26;;;;;;;18.63;13.85;;;16.70;1.00;;;;;;5005660;28;20252;-80
2022/03/04 11:47:00;;;;;;;19.73;15.00;;;15.80;1.00;;;;;;4974117;28;20205;-81
2022/03/04 11:49:43;;;;;;;19.90;13.63;;;15.90;1.00;;;;;;4996645;28;20221;-78
2022/03/04 11:52:12;;;;;;;19.00;13.48;;;14.90;1.00;;;;;;5006118;28;20255;-80
2022/03/04 11:54:44;;;;;;;21.08;15.07;;;14.20;1.00;;;;;;5006361;28;20203;-80
2022/03/04 11:57:24;;;;;;;18.42;12.85;;;14.80;1.00;;;;;;4988816;28;20201;-80
2022/03/04 11:59:57;;;;;;;18.95;13.13;;;14.60;1.00;;;;;;5012235;28;20621;-79
2022/03/04 12:02:42;;;;;;;17.98;12.48;;;15.30;1.00;;;;;;4989847;28;20699;-82
2022/03/04 12:05:30;;;;;;;23.88;14.52;;;13.70;1.00;;;;;;5008346;28;20921;-79
2022/03/04 12:08:00;;;;;;;18.17;12.30;;;13.90;1.00;;;;;;5007494;28;20189;-81
2022/03/04 12:10:37;;;;;;;16.00;11.65;;;14.60;1.00;;;;;;5007844;28;20241;-79
2022/03/04 12:13:09;;;;;;;18.17;11.63;;;14.10;1.00;;;;;;5007572;28;20304;-80
2022/03/04 12:15:39;;;;;;;16.80;11.90;;;13.60;1.00;;;;;;5022367;28;20299;-82
2022/03/04 12:18:17;;;;;;;17.73;13.35;;;13.40;1.00;;;;;;5022889;28;20243;-84
2022/03/04 12:20:44;;;;;;;17.80;12.93;;;14.10;1.00;;;;;;5023244;28;20209;-82
2022/03/04 12:23:17;;;;;;;17.48;11.80;;;14.40;1.00;;;;;;5002185;28;20221;-79
2022/03/04 12:25:54;;;;;;;16.63;12.48;;;13.50;1.00;;;;;;5002565;28;20229;-76
2022/03/04 12:28:24;;;;;;;16.23;11.77;;;13.30;1.00;;;;;;5006069;28;20664;-84
2022/03/04 12:31:01;;;;;;;18.50;11.50;;;12.20;1.00;;;;;;5000577;28;20211;-81
2022/03/04 12:33:36;;;;;;;18.90;12.70;;;11.70;1.00;;;;;;5001058;28;20679;-80
2022/03/04 12:36:25;;;;;;;18.53;11.67;;;12.20;1.00;;;;;;5002500;28;20567;-81
2022/03/04 12:39:00;;;;;;;16.60;11.17;;;11.90;1.00;;;;;;5003173;28;20200;-79
2022/03/04 12:41:32;;;;;;;17.47;11.73;;;11.80;1.00;;;;;;4987593;28;20260;-80
2022/03/04 12:44:06;;;;;;;16.27;11.23;;;12.10;1.00;;;;;;5003912;28;20220;-80
2022/03/04 12:46:35;;;;;;;17.17;11.07;;;12.10;1.00;;;;;;5004771;28;20197;-80
2022/03/04 12:49:05;;;;;;;15.53;10.30;;;11.90;1.00;;;;;;5006060;28;20798;-82